Time;durP1;ratioP1;P1;durP2;ratioP2;P2;SDS_P1;SDS_P2;PMS_P1;PMS_P2;Temp;Humidity;BMP_temperature;BMP_pressure;BME280_temperature;BME280_humidity;BME280_pressure;Samples;Min_cycle;Max_cycle;Signal;HPM_P1;HPM_P2
2023/03/18 00:02:22;;;;;;;;;;;;;;;;;;5053482;28;19901;-63
2023/03/18 00:04:48;;;;;;;;;;;;;;;;;;5063538;22;19921;-65
2023/03/18 00:07:15;;;;;;;;;;;;;;;;;;5050955;28;20308;-65
2023/03/18 00:09:41;;;;;;;;;;;;;;;;;;5051453;28;20023;-66
2023/03/18 00:12:07;;;;;;;;;;;;;;;;;;5051316;28;20311;-66
2023/03/18 00:14:33;;;;;;;;;;;;;;;;;;5049803;28;19935;-68
2023/03/18 00:16:59;;;;;;;;;;;;;;;;;;5051624;28;20016;-65
2023/03/18 00:19:25;;;;;;;;;;;;;;;;;;5051768;28;19956;-65
2023/03/18 00:21:51;;;;;;;;;;;;;;;;;;5050803;28;19951;-65
2023/03/18 00:24:17;;;;;;;;;;;;;;;;;;5052278;28;19911;-65
2023/03/18 00:26:43;;;;;;;;;;;;;;;;;;5050465;28;19927;-66
2023/03/18 00:29:09;;;;;;;;;;;;;;;;;;5051316;28;19940;-65
2023/03/18 00:31:36;;;;;;;;;;;;;;;;;;5049796;28;19904;-63
2023/03/18 00:34:02;;;;;;;;;;;;;;;;;;5050794;28;20377;-64
2023/03/18 00:36:29;;;;;;;;;;;;;;;;;;5051110;28;19952;-65
2023/03/18 00:38:56;;;;;;;;;;;;;;;;;;5049731;28;20285;-65
2023/03/18 00:41:22;;;;;;;;;;;;;;;;;;5050860;28;19966;-65
2023/03/18 00:43:51;;;;;;;;;;;;;;;;;;5049328;28;20432;-66
2023/03/18 00:46:17;;;;;;;;;;;;;;;;;;5049612;28;20333;-65
2023/03/18 00:48:43;;;;;;;;;;;;;;;;;;5050838;28;19904;-65
2023/03/18 00:51:12;;;;;;;;;;;;;;;;;;5050566;28;20042;-65
2023/03/18 00:53:39;;;;;;;;;;;;;;;;;;5050459;28;19909;-64
2023/03/18 00:56:04;;;;;;;;;;;;;;;;;;5049356;28;19909;-65
2023/03/18 00:58:30;;;;;;;;;;;;;;;;;;5050702;28;20403;-67
2023/03/18 01:00:56;;;;;;;;;;;;;;;;;;5050807;28;20011;-65
2023/03/18 01:03:24;;;;;;;;;;;;;;;;;;5050321;28;20374;-66
2023/03/18 01:05:50;;;;;;;;;;;;;;;;;;5050744;28;19909;-65
2023/03/18 01:08:16;;;;;;;;;;;;;;;;;;5050620;28;19924;-65
2023/03/18 01:10:42;;;;;;;;;;;;;;;;;;5050802;28;19912;-66
2023/03/18 01:13:08;;;;;;;;;;;;;;;;;;5050153;28;19931;-64
2023/03/18 01:15:34;;;;;;;;;;;;;;;;;;5049481;28;19963;-66
2023/03/18 01:18:00;;;;;;;;;;;;;;;;;;5050577;28;20285;-65
2023/03/18 01:20:26;;;;;;;;;;;;;;;;;;5050746;28;20699;-66
2023/03/18 01:22:52;;;;;;;;;;;;;;;;;;5049277;28;19909;-65
2023/03/18 01:25:19;;;;;;;;;;;;;;;;;;5048704;28;19963;-67
2023/03/18 01:27:45;;;;;;;;;;;;;;;;;;5050520;28;19920;-66
2023/03/18 01:30:12;;;;;;;;;;;;;;;;;;5050327;28;19905;-65
2023/03/18 01:32:38;;;;;;;;;;;;;;;;;;5050261;28;20279;-66
2023/03/18 01:35:04;;;;;;;;;;;;;;;;;;5050172;28;19905;-66
2023/03/18 01:37:30;;;;;;;;;;;;;;;;;;5048895;28;19912;-66
2023/03/18 01:39:57;;;;;;;;;;;;;;;;;;5050229;28;19908;-66
2023/03/18 01:42:23;;;;;;;;;;;;;;;;;;5050366;28;19905;-65
2023/03/18 01:44:49;;;;;;;;;;;;;;;;;;5048943;28;19911;-65
2023/03/18 01:47:16;;;;;;;;;;;;;;;;;;5050109;28;19949;-66
2023/03/18 01:49:42;;;;;;;;;;;;;;;;;;5050435;28;20296;-66
2023/03/18 01:52:08;;;;;;;;;;;;;;;;;;5048911;28;19912;-66
2023/03/18 01:54:33;;;;;;;;;;;;;;;;;;5049870;28;19912;-66
2023/03/18 01:57:00;;;;;;;;;;;;;;;;;;5050105;28;20253;-66
2023/03/18 01:59:27;;;;;;;;;;;;;;;;;;5050099;28;20288;-66
2023/03/18 02:01:53;;;;;;;;;;;;;;;;;;5050128;28;19904;-67
2023/03/18 02:04:20;;;;;;;;;;;;;;;;;;5052798;28;20050;-65
2023/03/18 02:06:46;;;;;;;;;;;;;;;;;;5053749;28;19911;-66
2023/03/18 02:09:11;;;;;;;;;;;;;;;;;;5053615;28;19905;-66
2023/03/18 02:11:37;;;;;;;;;;;;;;;;;;5052458;28;20277;-66
2023/03/18 02:14:04;;;;;;;;;;;;;;;;;;5053387;28;19916;-66
2023/03/18 02:16:31;;;;;;;;;;;;;;;;;;5052343;28;20373;-65
2023/03/18 02:18:57;;;;;;;;;;;;;;;;;;5053659;28;19912;-66
2023/03/18 02:21:22;;;;;;;;;;;;;;;;;;5053531;28;19912;-66
2023/03/18 02:23:48;;;;;;;;;;;;;;;;;;5053123;28;19912;-66
2023/03/18 02:26:14;;;;;;;;;;;;;;;;;;5053601;28;19905;-65
2023/03/18 02:28:40;;;;;;;;;;;;;;;;;;5053707;28;19904;-66
2023/03/18 02:31:08;;;;;;;;;;;;;;;;;;5052209;28;20007;-66
2023/03/18 02:33:34;;;;;;;;;;;;;;;;;;5051845;28;20006;-66
2023/03/18 02:36:00;;;;;;;;;;;;;;;;;;5053541;28;19908;-65
2023/03/18 02:38:26;;;;;;;;;;;;;;;;;;5052195;28;19905;-65
2023/03/18 02:40:51;;;;;;;;;;;;;;;;;;5053633;28;19909;-66
2023/03/18 02:43:17;;;;;;;;;;;;;;;;;;5052128;28;20349;-66
2023/03/18 02:45:43;;;;;;;;;;;;;;;;;;5053693;28;20038;-65
2023/03/18 02:48:09;;;;;;;;;;;;;;;;;;5052586;28;20001;-64
2023/03/18 02:50:35;;;;;;;;;;;;;;;;;;5053600;28;19911;-65
2023/03/18 02:53:01;;;;;;;;;;;;;;;;;;5052860;28;19935;-66
2023/03/18 02:55:27;;;;;;;;;;;;;;;;;;5053135;28;19970;-66
2023/03/18 02:57:53;;;;;;;;;;;;;;;;;;5051956;28;19905;-65
2023/03/18 03:00:19;;;;;;;;;;;;;;;;;;5051980;28;19905;-66
2023/03/18 03:02:44;;;;;;;;;;;;;;;;;;5053169;28;19912;-65
2023/03/18 03:05:11;;;;;;;;;;;;;;;;;;5052736;28;19912;-66
2023/03/18 03:07:36;;;;;;;;;;;;;;;;;;5053008;28;19923;-66
2023/03/18 03:10:02;;;;;;;;;;;;;;;;;;5052971;28;19983;-66
2023/03/18 03:12:29;;;;;;;;;;;;;;;;;;5051683;28;19984;-66
2023/03/18 03:14:55;;;;;;;;;;;;;;;;;;5052446;28;19908;-66
2023/03/18 03:17:21;;;;;;;;;;;;;;;;;;5052871;28;20283;-65
2023/03/18 03:19:47;;;;;;;;;;;;;;;;;;5052850;28;19909;-65
2023/03/18 03:22:13;;;;;;;;;;;;;;;;;;5052601;28;20254;-65
2023/03/18 03:24:39;;;;;;;;;;;;;;;;;;5051157;28;19951;-66
2023/03/18 03:27:05;;;;;;;;;;;;;;;;;;5052527;28;19905;-66
2023/03/18 03:29:31;;;;;;;;;;;;;;;;;;5052360;28;19948;-65
2023/03/18 03:31:57;;;;;;;;;;;;;;;;;;5051021;28;19915;-65
2023/03/18 03:34:24;;;;;;;;;;;;;;;;;;5050847;28;19927;-65
2023/03/18 03:36:50;;;;;;;;;;;;;;;;;;5052307;28;20376;-66
2023/03/18 03:39:16;;;;;;;;;;;;;;;;;;5052587;28;19905;-65
2023/03/18 03:41:42;;;;;;;;;;;;;;;;;;5051134;28;20337;-66
2023/03/18 03:44:08;;;;;;;;;;;;;;;;;;5050490;28;19912;-65
2023/03/18 03:46:34;;;;;;;;;;;;;;;;;;5052071;28;19908;-65
2023/03/18 03:49:00;;;;;;;;;;;;;;;;;;5052033;28;19904;-65
2023/03/18 03:51:26;;;;;;;;;;;;;;;;;;5052050;28;19958;-66
2023/03/18 03:53:52;;;;;;;;;;;;;;;;;;5051711;28;20350;-66
2023/03/18 03:56:18;;;;;;;;;;;;;;;;;;5052004;28;19927;-65
2023/03/18 03:58:44;;;;;;;;;;;;;;;;;;5050684;28;20368;-66
2023/03/18 04:01:10;;;;;;;;;;;;;;;;;;5051996;28;19908;-66
2023/03/18 04:03:36;;;;;;;;;;;;;;;;;;5051131;28;19920;-66
2023/03/18 04:06:02;;;;;;;;;;;;;;;;;;5051688;28;19904;-66
2023/03/18 04:08:28;;;;;;;;;;;;;;;;;;5051602;28;19931;-67
2023/03/18 04:10:54;;;;;;;;;;;;;;;;;;5050345;28;19905;-65
2023/03/18 04:13:20;;;;;;;;;;;;;;;;;;5051417;28;20026;-66
2023/03/18 04:15:46;;;;;;;;;;;;;;;;;;5050643;28;19959;-66
2023/03/18 04:18:13;;;;;;;;;;;;;;;;;;5051654;28;20582;-65
2023/03/18 04:20:39;;;;;;;;;;;;;;;;;;5049787;28;19999;-65
2023/03/18 04:23:06;;;;;;;;;;;;;;;;;;5049588;28;19995;-67
2023/03/18 04:25:32;;;;;;;;;;;;;;;;;;5051103;28;19909;-67
2023/03/18 04:27:57;;;;;;;;;;;;;;;;;;5051510;28;19969;-66
2023/03/18 04:30:25;;;;;;;;;;;;;;;;;;5047531;28;19916;-66
2023/03/18 04:32:51;;;;;;;;;;;;;;;;;;5049623;28;19936;-66
2023/03/18 04:35:17;;;;;;;;;;;;;;;;;;5049318;28;20363;-66
2023/03/18 04:37:43;;;;;;;;;;;;;;;;;;5051093;28;19905;-66
2023/03/18 04:40:09;;;;;;;;;;;;;;;;;;5050997;28;19909;-65
2023/03/18 04:42:35;;;;;;;;;;;;;;;;;;5050891;28;19905;-65
2023/03/18 04:45:01;;;;;;;;;;;;;;;;;;5050423;28;19912;-66
2023/03/18 04:47:27;;;;;;;;;;;;;;;;;;5051066;28;20644;-66
2023/03/18 04:49:53;;;;;;;;;;;;;;;;;;5051304;28;19932;-66
2023/03/18 04:52:19;;;;;;;;;;;;;;;;;;5052135;28;20339;-65
2023/03/18 04:54:45;;;;;;;;;;;;;;;;;;5051324;28;20072;-66
2023/03/18 04:57:11;;;;;;;;;;;;;;;;;;5046772;28;19924;-66
2023/03/18 04:59:37;;;;;;;;;;;;;;;;;;5050954;28;19908;-66
2023/03/18 05:02:03;;;;;;;;;;;;;;;;;;5051550;28;19904;-66
2023/03/18 05:04:29;;;;;;;;;;;;;;;;;;5045841;28;19913;-64
2023/03/18 05:06:55;;;;;;;;;;;;;;;;;;5050562;28;19952;-65
2023/03/18 05:09:22;;;;;;;;;;;;;;;;;;5051192;28;20297;-66
2023/03/18 05:11:48;;;;;;;;;;;;;;;;;;5049345;28;19905;-66
2023/03/18 05:14:14;;;;;;;;;;;;;;;;;;5050369;28;20436;-65
2023/03/18 05:16:40;;;;;;;;;;;;;;;;;;5054630;28;19904;-65
2023/03/18 05:19:08;;;;;;;;;;;;;;;;;;5056658;28;19955;-65
2023/03/18 05:21:34;;;;;;;;;;;;;;;;;;5052405;28;20297;-65
2023/03/18 05:24:00;;;;;;;;;;;;;;;;;;5050380;28;19905;-65
2023/03/18 05:26:26;;;;;;;;;;;;;;;;;;5050757;28;20339;-66
2023/03/18 05:28:52;;;;;;;;;;;;;;;;;;5050221;28;19948;-66
2023/03/18 05:31:18;;;;;;;;;;;;;;;;;;5050802;28;19959;-66
2023/03/18 05:33:44;;;;;;;;;;;;;;;;;;5048829;28;19908;-65
2023/03/18 05:36:10;;;;;;;;;;;;;;;;;;5049150;28;19956;-65
2023/03/18 05:38:36;;;;;;;;;;;;;;;;;;5052729;28;19905;-65
2023/03/18 05:41:02;;;;;;;;;;;;;;;;;;5054541;28;19996;-66
2023/03/18 05:43:28;;;;;;;;;;;;;;;;;;5052954;28;19956;-64
2023/03/18 05:45:54;;;;;;;;;;;;;;;;;;5054528;28;19904;-66
2023/03/18 05:48:20;;;;;;;;;;;;;;;;;;5054579;28;20374;-65
2023/03/18 05:50:46;;;;;;;;;;;;;;;;;;5054063;28;19988;-65
2023/03/18 05:53:12;;;;;;;;;;;;;;;;;;5052415;28;20051;-65
2023/03/18 05:55:38;;;;;;;;;;;;;;;;;;5054215;28;19912;-66
2023/03/18 05:58:04;;;;;;;;;;;;;;;;;;5054225;28;19931;-66
2023/03/18 06:00:30;;;;;;;;;;;;;;;;;;5053947;28;19912;-66
2023/03/18 06:02:57;;;;;;;;;;;;;;;;;;5053951;28;19905;-64
2023/03/18 06:05:23;;;;;;;;;;;;;;;;;;5090306;22;19952;-63
2023/03/18 06:07:49;;;;;;;;;;;;;;;;;;5075495;28;19992;-62
2023/03/18 06:10:15;;;;;;;;;;;;;;;;;;5075275;28;20369;-63
2023/03/18 06:12:41;;;;;;;;;;;;;;;;;;5075252;28;19908;-62
2023/03/18 06:15:07;;;;;;;;;;;;;;;;;;5074717;28;19904;-63
2023/03/18 06:17:33;;;;;;;;;;;;;;;;;;5074894;28;19950;-62
2023/03/18 06:19:59;;;;;;;;;;;;;;;;;;5074799;28;19931;-63
2023/03/18 06:22:25;;;;;;;;;;;;;;;;;;5074894;28;19904;-62
2023/03/18 06:24:51;;;;;;;;;;;;;;;;;;5056626;28;19905;-62
2023/03/18 06:27:16;;;;;;;;;;;;;;;;;;5074666;28;20280;-62
2023/03/18 06:29:43;;;;;;;;;;;;;;;;;;5056711;28;20269;-63
2023/03/18 06:32:08;;;;;;;;;;;;;;;;;;5056879;28;19970;-62
2023/03/18 06:34:35;;;;;;;;;;;;;;;;;;5074193;28;20376;-62
2023/03/18 06:37:01;;;;;;;;;;;;;;;;;;5074670;28;19911;-61
2023/03/18 06:39:29;;;;;;;;;;;;;;;;;;5074610;28;20417;-62
2023/03/18 06:41:56;;;;;;;;;;;;;;;;;;5074576;28;19919;-63
2023/03/18 06:44:22;;;;;;;;;;;;;;;;;;5056106;28;19904;-61
2023/03/18 06:46:48;;;;;;;;;;;;;;;;;;5071925;28;19912;-64
2023/03/18 06:49:14;;;;;;;;;;;;;;;;;;5070002;28;20333;-62
2023/03/18 06:51:40;;;;;;;;;;;;;;;;;;5063345;28;20280;-63
2023/03/18 06:54:06;;;;;;;;;;;;;;;;;;5053841;28;20470;-63
2023/03/18 06:56:40;;;;;;;;;;;;;;;;;;5070141;28;20417;-62
2023/03/18 06:59:06;;;;;;;;;;;;;;;;;;5074183;28;20270;-63
2023/03/18 07:01:32;;;;;;;;;;;;;;;;;;5074485;28;20300;-60
2023/03/18 07:03:59;;;;;;;;;;;;;;;;;;5066642;28;19909;-64
2023/03/18 07:06:25;;;;;;;;;;;;;;;;;;5036412;28;19916;-65
2023/03/18 07:08:51;;;;;;;;;;;;;;;;;;5036105;28;20357;-61
2023/03/18 07:11:17;;;;;;;;;;;;;;;;;;5053921;28;20317;-65
2023/03/18 07:13:43;;;;;;;;;;;;;;;;;;5053605;28;20001;-64
2023/03/18 07:16:09;;;;;;;;;;;;;;;;;;5053749;28;19908;-63
2023/03/18 07:18:36;;;;;;;;;;;;;;;;;;5035820;28;19911;-59
2023/03/18 07:21:02;;;;;;;;;;;;;;;;;;5042496;28;19905;-63
2023/03/18 07:23:28;;;;;;;;;;;;;;;;;;5073660;28;19904;-62
2023/03/18 07:25:54;;;;;;;;;;;;;;;;;;5072330;28;20337;-62
2023/03/18 07:28:20;;;;;;;;;;;;;;;;;;5073586;28;20368;-63
2023/03/18 07:30:46;;;;;;;;;;;;;;;;;;5072318;28;19900;-59
2023/03/18 07:33:11;;;;;;;;;;;;;;;;;;5073344;28;19991;-62
2023/03/18 07:35:39;;;;;;;;;;;;;;;;;;5073840;28;19954;-63
2023/03/18 07:38:05;;;;;;;;;;;;;;;;;;5073776;28;20376;-63
2023/03/18 07:40:31;;;;;;;;;;;;;;;;;;5073542;28;19943;-62
2023/03/18 07:43:06;;;;;;;;;;;;;;;;;;5072174;28;19905;-61
2023/03/18 07:45:33;;;;;;;;;;;;;;;;;;5072134;28;19909;-62
2023/03/18 07:47:59;;;;;;;;;;;;;;;;;;5071800;28;19987;-61
2023/03/18 07:50:25;;;;;;;;;;;;;;;;;;5073237;28;20353;-62
2023/03/18 07:52:51;;;;;;;;;;;;;;;;;;5073108;28;19938;-62
2023/03/18 07:55:17;;;;;;;;;;;;;;;;;;5055050;28;19999;-62
2023/03/18 07:57:42;;;;;;;;;;;;;;;;;;5073444;28;20360;-62
2023/03/18 08:00:09;;;;;;;;;;;;;;;;;;5072567;28;19908;-62
2023/03/18 08:02:35;;;;;;;;;;;;;;;;;;5073021;28;19919;-62
2023/03/18 08:05:02;;;;;;;;;;;;;;;;;;5054860;28;19920;-61
2023/03/18 08:07:28;;;;;;;;;;;;;;;;;;5073114;28;19974;-63
2023/03/18 08:09:54;;;;;;;;;;;;;;;;;;5054712;28;19912;-62
2023/03/18 08:12:20;;;;;;;;;;;;;;;;;;5054724;28;19922;-61
2023/03/18 08:14:47;;;;;;;;;;;;;;;;;;5072143;28;19915;-62
2023/03/18 08:17:13;;;;;;;;;;;;;;;;;;5072839;28;19911;-63
2023/03/18 08:19:38;;;;;;;;;;;;;;;;;;5072682;28;19908;-61
2023/03/18 08:22:04;;;;;;;;;;;;;;;;;;5072407;28;20388;-63
2023/03/18 08:24:31;;;;;;;;;;;;;;;;;;5069933;28;19915;-63
2023/03/18 08:26:57;;;;;;;;;;;;;;;;;;5067220;28;19904;-60
2023/03/18 08:29:23;;;;;;;;;;;;;;;;;;5072578;28;20307;-60
2023/03/18 08:31:50;;;;;;;;;;;;;;;;;;5072883;28;19989;-63
2023/03/18 08:34:15;;;;;;;;;;;;;;;;;;5054237;28;19919;-64
2023/03/18 08:36:41;;;;;;;;;;;;;;;;;;5054427;28;19916;-62
2023/03/18 08:39:08;;;;;;;;;;;;;;;;;;5072095;28;20638;-64
2023/03/18 08:41:34;;;;;;;;;;;;;;;;;;5072145;28;19905;-62
2023/03/18 08:44:00;;;;;;;;;;;;;;;;;;5071579;28;20007;-63
2023/03/18 08:46:26;;;;;;;;;;;;;;;;;;5070982;28;20334;-63
2023/03/18 08:48:53;;;;;;;;;;;;;;;;;;5070740;28;19944;-63
2023/03/18 08:51:19;;;;;;;;;;;;;;;;;;5072041;28;19904;-61
2023/03/18 08:53:44;;;;;;;;;;;;;;;;;;5071800;28;19909;-62
2023/03/18 08:56:11;;;;;;;;;;;;;;;;;;5071848;28;20296;-62
2023/03/18 08:58:37;;;;;;;;;;;;;;;;;;5071745;28;19947;-64
2023/03/18 09:01:04;;;;;;;;;;;;;;;;;;5070619;28;20353;-64
2023/03/18 09:03:29;;;;;;;;;;;;;;;;;;5071894;28;19911;-63
2023/03/18 09:05:56;;;;;;;;;;;;;;;;;;5069778;28;19912;-62
2023/03/18 09:08:22;;;;;;;;;;;;;;;;;;5067229;28;19915;-61
2023/03/18 09:10:48;;;;;;;;;;;;;;;;;;5071945;28;19958;-62
2023/03/18 09:13:14;;;;;;;;;;;;;;;;;;5069940;28;19916;-65
2023/03/18 09:15:40;;;;;;;;;;;;;;;;;;5071694;28;19905;-59
2023/03/18 09:18:07;;;;;;;;;;;;;;;;;;5070606;28;20297;-62
2023/03/18 09:20:32;;;;;;;;;;;;;;;;;;5070547;28;19981;-63
2023/03/18 09:22:58;;;;;;;;;;;;;;;;;;5071422;28;19923;-60
2023/03/18 09:25:24;;;;;;;;;;;;;;;;;;5071713;28;20068;-60
2023/03/18 09:27:50;;;;;;;;;;;;;;;;;;5071480;28;19909;-62
2023/03/18 09:30:16;;;;;;;;;;;;;;;;;;5071665;28;19916;-60
2023/03/18 09:32:43;;;;;;;;;;;;;;;;;;5072368;28;19974;-58
2023/03/18 09:35:09;;;;;;;;;;;;;;;;;;5072034;28;19912;-62
2023/03/18 09:37:35;;;;;;;;;;;;;;;;;;5071994;28;20395;-59
2023/03/18 09:40:01;;;;;;;;;;;;;;;;;;5071758;28;19953;-62
2023/03/18 09:42:27;;;;;;;;;;;;;;;;;;5071701;28;19908;-61
2023/03/18 09:44:53;;;;;;;;;;;;;;;;;;5071197;28;20349;-62
2023/03/18 09:47:20;;;;;;;;;;;;;;;;;;5071864;28;19910;-60
2023/03/18 09:49:46;;;;;;;;;;;;;;;;;;5056675;28;19974;-62
2023/03/18 09:52:12;;;;;;;;;;;;;;;;;;5052160;28;20028;-58
2023/03/18 09:54:39;;;;;;;;;;;;;;;;;;5051194;28;19916;-62
2023/03/18 09:57:05;;;;;;;;;;;;;;;;;;5051550;28;20020;-51
2023/03/18 09:59:31;;;;;;;;;;;;;;;;;;5051604;28;19912;-59
2023/03/18 10:01:57;;;;;;;;;;;;;;;;;;5052095;28;19928;-60
2023/03/18 10:04:23;;;;;;;;;;;;;;;;;;5051230;28;19908;-63
2023/03/18 10:06:49;;;;;;;;;;;;;;;;;;5051980;28;19905;-63
2023/03/18 10:09:15;;;;;;;;;;;;;;;;;;5051794;28;19905;-59
2023/03/18 10:11:41;;;;;;;;;;;;;;;;;;5051587;28;19951;-61
2023/03/18 10:14:07;;;;;;;;;;;;;;;;;;5049781;28;19912;-62
2023/03/18 10:16:33;;;;;;;;;;;;;;;;;;5051520;28;19909;-61
2023/03/18 10:18:59;;;;;;;;;;;;;;;;;;5049995;28;19962;-60
2023/03/18 10:21:26;;;;;;;;;;;;;;;;;;5051741;28;19905;-62
2023/03/18 10:23:52;;;;;;;;;;;;;;;;;;5052127;28;20003;-62
2023/03/18 10:26:18;;;;;;;;;;;;;;;;;;5053100;28;19954;-63
2023/03/18 10:28:44;;;;;;;;;;;;;;;;;;5053694;28;19905;-59
2023/03/18 10:31:10;;;;;;;;;;;;;;;;;;5053125;28;19909;-59
2023/03/18 10:33:36;;;;;;;;;;;;;;;;;;5053960;28;20423;-62
2023/03/18 10:36:02;;;;;;;;;;;;;;;;;;5054397;28;19928;-63
2023/03/18 10:38:28;;;;;;;;;;;;;;;;;;5054126;28;19905;-62
2023/03/18 10:40:54;;;;;;;;;;;;;;;;;;5054510;28;19904;-62
2023/03/18 10:43:20;;;;;;;;;;;;;;;;;;5054296;28;19905;-57
2023/03/18 10:45:46;;;;;;;;;;;;;;;;;;5054703;28;20265;-62
2023/03/18 10:48:12;;;;;;;;;;;;;;;;;;5053358;28;19963;-61
2023/03/18 10:50:38;;;;;;;;;;;;;;;;;;5054409;28;19909;-63
2023/03/18 10:53:04;;;;;;;;;;;;;;;;;;5054843;28;19904;-58
2023/03/18 10:55:30;;;;;;;;;;;;;;;;;;5054442;28;19914;-61
2023/03/18 10:57:56;;;;;;;;;;;;;;;;;;5053275;28;20395;-61
2023/03/18 11:00:22;;;;;;;;;;;;;;;;;;5060909;28;19916;-61
2023/03/18 11:02:48;;;;;;;;;;;;;;;;;;5073960;28;19995;-60
2023/03/18 11:05:14;;;;;;;;;;;;;;;;;;5074590;28;20352;-56
2023/03/18 11:07:40;;;;;;;;;;;;;;;;;;5074131;28;20063;-62
2023/03/18 11:10:06;;;;;;;;;;;;;;;;;;5074503;28;19908;-58
2023/03/18 11:12:33;;;;;;;;;;;;;;;;;;5055851;28;19909;-61
2023/03/18 11:14:59;;;;;;;;;;;;;;;;;;5055040;28;20336;-56
2023/03/18 11:17:26;;;;;;;;;;;;;;;;;;5069528;28;19904;-62
2023/03/18 11:19:52;;;;;;;;;;;;;;;;;;5070046;28;19912;-60
2023/03/18 11:22:18;;;;;;;;;;;;;;;;;;5073149;28;19904;-60
2023/03/18 11:24:44;;;;;;;;;;;;;;;;;;5073704;28;19904;-63
2023/03/18 11:27:10;;;;;;;;;;;;;;;;;;5073885;28;19905;-64
2023/03/18 11:29:37;;;;;;;;;;;;;;;;;;5073894;28;19905;-62
2023/03/18 11:32:03;;;;;;;;;;;;;;;;;;5073910;28;19911;-60
2023/03/18 11:34:29;;;;;;;;;;;;;;;;;;5073001;28;19908;-62
2023/03/18 11:36:57;;;;;;;;;;;;;;;;;;5071437;28;19911;-63
2023/03/18 11:39:23;;;;;;;;;;;;;;;;;;5073660;28;19905;-63
2023/03/18 11:41:49;;;;;;;;;;;;;;;;;;5073355;28;19980;-62
2023/03/18 11:44:16;;;;;;;;;;;;;;;;;;5072902;28;19905;-63
2023/03/18 11:46:42;;;;;;;;;;;;;;;;;;5061627;28;20316;-64
2023/03/18 11:49:08;;;;;;;;;;;;;;;;;;5073418;28;19911;-62
2023/03/18 11:51:34;;;;;;;;;;;;;;;;;;5073266;28;19989;-64
2023/03/18 11:54:00;;;;;;;;;;;;;;;;;;5072531;28;20073;-63
2023/03/18 11:56:26;;;;;;;;;;;;;;;;;;5073814;28;19995;-63
2023/03/18 11:58:53;;;;;;;;;;;;;;;;;;5072884;28;19914;-62
2023/03/18 12:01:19;;;;;;;;;;;;;;;;;;5073119;28;20444;-64
2023/03/18 12:03:46;;;;;;;;;;;;;;;;;;5055053;28;20249;-64
2023/03/18 12:06:12;;;;;;;;;;;;;;;;;;5093683;22;19966;-56
2023/03/18 12:08:37;;;;;;;;;;;;;;;;;;5071105;28;19905;-60
2023/03/18 12:11:05;;;;;;;;;;;;;;;;;;5071634;28;19923;-57
2023/03/18 12:13:31;;;;;;;;;;;;;;;;;;5071849;28;19912;-59
2023/03/18 12:15:57;;;;;;;;;;;;;;;;;;5071862;28;19911;-61
2023/03/18 12:18:23;;;;;;;;;;;;;;;;;;5070972;28;19905;-58
2023/03/18 12:20:52;;;;;;;;;;;;;;;;;;5070064;28;20081;-65
2023/03/18 12:23:17;;;;;;;;;;;;;;;;;;5070188;28;19916;-62
2023/03/18 12:25:43;;;;;;;;;;;;;;;;;;5069904;28;19908;-62
2023/03/18 12:28:09;;;;;;;;;;;;;;;;;;5052051;28;20316;-60
2023/03/18 12:30:35;;;;;;;;;;;;;;;;;;5069333;28;20004;-65
2023/03/18 12:33:03;;;;;;;;;;;;;;;;;;5068954;28;19972;-60
2023/03/18 12:35:28;;;;;;;;;;;;;;;;;;5069174;28;19904;-63
2023/03/18 12:37:54;;;;;;;;;;;;;;;;;;5070765;28;19911;-67
2023/03/18 12:40:20;;;;;;;;;;;;;;;;;;5070712;28;20000;-65
2023/03/18 12:42:46;;;;;;;;;;;;;;;;;;5070421;28;20531;-61
2023/03/18 12:45:13;;;;;;;;;;;;;;;;;;5052512;28;19912;-63
2023/03/18 12:47:39;;;;;;;;;;;;;;;;;;5064155;28;19930;-64
2023/03/18 12:50:05;;;;;;;;;;;;;;;;;;5069842;28;19909;-62
2023/03/18 12:52:31;;;;;;;;;;;;;;;;;;5070481;28;19951;-60
2023/03/18 12:54:56;;;;;;;;;;;;;;;;;;5069571;28;20345;-64
2023/03/18 12:57:22;;;;;;;;;;;;;;;;;;5070599;28;19936;-64
2023/03/18 12:59:48;;;;;;;;;;;;;;;;;;5070592;28;20279;-63
2023/03/18 13:02:14;;;;;;;;;;;;;;;;;;5070290;28;19985;-62
2023/03/18 13:04:40;;;;;;;;;;;;;;;;;;5068708;28;19994;-61
2023/03/18 13:07:06;;;;;;;;;;;;;;;;;;5069443;28;19959;-62
2023/03/18 13:09:33;;;;;;;;;;;;;;;;;;5070532;28;20042;-63
2023/03/18 13:12:00;;;;;;;;;;;;;;;;;;5070782;28;19931;-61
2023/03/18 13:14:26;;;;;;;;;;;;;;;;;;5070004;28;20008;-63
2023/03/18 13:16:52;;;;;;;;;;;;;;;;;;5070573;28;19977;-63
2023/03/18 13:19:18;;;;;;;;;;;;;;;;;;5070410;28;19919;-64
2023/03/18 13:21:44;;;;;;;;;;;;;;;;;;5070539;28;19912;-63
2023/03/18 13:24:10;;;;;;;;;;;;;;;;;;5068614;28;20383;-61
2023/03/18 13:26:36;;;;;;;;;;;;;;;;;;5068745;28;19940;-62
2023/03/18 13:29:03;;;;;;;;;;;;;;;;;;5067141;28;19955;-61
2023/03/18 13:31:29;;;;;;;;;;;;;;;;;;5069816;28;19959;-64
2023/03/18 13:33:55;;;;;;;;;;;;;;;;;;5051907;28;19951;-65
2023/03/18 13:36:22;;;;;;;;;;;;;;;;;;5069124;28;20284;-61
2023/03/18 13:38:48;;;;;;;;;;;;;;;;;;5069692;28;19904;-60
2023/03/18 13:41:14;;;;;;;;;;;;;;;;;;4712486;28;10000262;-61
2023/03/18 13:43:40;;;;;;;;;;;;;;;;;;5063208;28;19991;-59
2023/03/18 13:46:06;;;;;;;;;;;;;;;;;;5067319;28;19912;-59
2023/03/18 13:48:32;;;;;;;;;;;;;;;;;;5058869;28;19912;-59
2023/03/18 13:50:58;;;;;;;;;;;;;;;;;;5059652;28;19958;-61
2023/03/18 13:53:24;;;;;;;;;;;;;;;;;;5060430;28;19912;-63
2023/03/18 13:55:50;;;;;;;;;;;;;;;;;;5065791;28;19908;-63
2023/03/18 13:58:16;;;;;;;;;;;;;;;;;;5068901;28;19919;-63
2023/03/18 14:00:42;;;;;;;;;;;;;;;;;;5072714;28;19904;-63
2023/03/18 14:03:08;;;;;;;;;;;;;;;;;;5073137;28;20054;-64
2023/03/18 14:05:34;;;;;;;;;;;;;;;;;;5055009;28;19920;-59
2023/03/18 14:08:00;;;;;;;;;;;;;;;;;;5073472;28;20338;-62
2023/03/18 14:10:26;;;;;;;;;;;;;;;;;;5074043;28;19936;-62
2023/03/18 14:12:52;;;;;;;;;;;;;;;;;;5073151;28;19928;-63
2023/03/18 14:15:18;;;;;;;;;;;;;;;;;;5071554;28;19914;-65
2023/03/18 14:17:46;;;;;;;;;;;;;;;;;;5072047;28;19995;-63
2023/03/18 14:20:12;;;;;;;;;;;;;;;;;;5073061;28;20353;-62
2023/03/18 14:22:38;;;;;;;;;;;;;;;;;;5073320;28;19905;-62
2023/03/18 14:25:04;;;;;;;;;;;;;;;;;;5073187;28;19905;-62
2023/03/18 14:27:30;;;;;;;;;;;;;;;;;;5073528;28;19957;-62
2023/03/18 14:29:56;;;;;;;;;;;;;;;;;;5073557;28;19905;-63
2023/03/18 14:32:22;;;;;;;;;;;;;;;;;;5073279;28;20004;-63
2023/03/18 14:34:48;;;;;;;;;;;;;;;;;;5072612;28;19998;-62
2023/03/18 14:37:15;;;;;;;;;;;;;;;;;;5072977;28;19927;-61
2023/03/18 14:39:41;;;;;;;;;;;;;;;;;;5072921;28;19966;-61
2023/03/18 14:42:07;;;;;;;;;;;;;;;;;;5072659;28;19904;-62
2023/03/18 14:44:33;;;;;;;;;;;;;;;;;;5072835;28;19916;-60
2023/03/18 14:46:59;;;;;;;;;;;;;;;;;;5072810;28;19970;-60
2023/03/18 14:49:25;;;;;;;;;;;;;;;;;;5072495;28;19904;-61
2023/03/18 14:51:51;;;;;;;;;;;;;;;;;;5072933;28;19908;-61
2023/03/18 14:54:16;;;;;;;;;;;;;;;;;;5072082;28;20427;-62
2023/03/18 14:56:43;;;;;;;;;;;;;;;;;;5072709;28;19904;-62
2023/03/18 14:59:09;;;;;;;;;;;;;;;;;;5072619;28;19924;-60
2023/03/18 15:01:35;;;;;;;;;;;;;;;;;;5055452;28;19937;-60
2023/03/18 15:04:01;;;;;;;;;;;;;;;;;;5079694;28;19957;-61
2023/03/18 15:06:27;;;;;;;;;;;;;;;;;;5060201;28;19912;-61
2023/03/18 15:08:53;;;;;;;;;;;;;;;;;;5073644;28;19995;-59
2023/03/18 15:11:19;;;;;;;;;;;;;;;;;;5072034;28;19936;-59
2023/03/18 15:13:45;;;;;;;;;;;;;;;;;;5072110;28;19912;-59
2023/03/18 15:16:12;;;;;;;;;;;;;;;;;;5072108;28;19911;-61
2023/03/18 15:18:38;;;;;;;;;;;;;;;;;;5072090;28;19904;-61
2023/03/18 15:21:04;;;;;;;;;;;;;;;;;;5072092;28;20036;-58
2023/03/18 15:23:30;;;;;;;;;;;;;;;;;;5071186;28;19904;-60
2023/03/18 15:25:56;;;;;;;;;;;;;;;;;;5071630;28;19911;-61
2023/03/18 15:28:26;;;;;;;;;;;;;;;;;;5071812;28;20240;-58
2023/03/18 15:30:53;;;;;;;;;;;;;;;;;;5053741;28;20321;-62
2023/03/18 15:33:19;;;;;;;;;;;;;;;;;;5071381;28;19904;-59
2023/03/18 15:35:46;;;;;;;;;;;;;;;;;;5071396;28;19953;-60
2023/03/18 15:38:12;;;;;;;;;;;;;;;;;;5053305;28;19904;-62
2023/03/18 15:40:38;;;;;;;;;;;;;;;;;;5071626;28;19904;-62
2023/03/18 15:43:04;;;;;;;;;;;;;;;;;;5053224;28;19981;-62
2023/03/18 15:45:29;;;;;;;;;;;;;;;;;;5071309;28;20276;-61
2023/03/18 15:47:56;;;;;;;;;;;;;;;;;;5053618;28;19904;-60
2023/03/18 15:50:22;;;;;;;;;;;;;;;;;;5071546;28;19912;-59
2023/03/18 15:52:48;;;;;;;;;;;;;;;;;;5053565;28;20279;-64
2023/03/18 15:55:14;;;;;;;;;;;;;;;;;;5070763;28;20011;-62
2023/03/18 15:57:40;;;;;;;;;;;;;;;;;;5071296;28;19991;-63
2023/03/18 16:00:08;;;;;;;;;;;;;;;;;;5071496;28;19948;-60
2023/03/18 16:02:34;;;;;;;;;;;;;;;;;;5053390;28;19958;-57
2023/03/18 16:05:00;;;;;;;;;;;;;;;;;;5070672;28;19968;-62
2023/03/18 16:07:28;;;;;;;;;;;;;;;;;;5071578;28;19916;-60
2023/03/18 16:09:54;;;;;;;;;;;;;;;;;;5071312;28;19930;-58
2023/03/18 16:12:21;;;;;;;;;;;;;;;;;;5070446;28;20261;-53
2023/03/18 16:14:46;;;;;;;;;;;;;;;;;;5070280;28;20006;-55
2023/03/18 16:17:12;;;;;;;;;;;;;;;;;;5071003;28;20008;-55
2023/03/18 16:19:38;;;;;;;;;;;;;;;;;;5070707;28;19904;-57
2023/03/18 16:22:05;;;;;;;;;;;;;;;;;;5070418;28;20336;-59
2023/03/18 16:24:30;;;;;;;;;;;;;;;;;;5070424;28;20416;-56
2023/03/18 16:26:56;;;;;;;;;;;;;;;;;;5070744;28;20010;-54
2023/03/18 16:29:22;;;;;;;;;;;;;;;;;;5070766;28;19999;-51
2023/03/18 16:31:48;;;;;;;;;;;;;;;;;;5070641;28;20376;-53
2023/03/18 16:34:14;;;;;;;;;;;;;;;;;;5052116;28;19908;-56
2023/03/18 16:36:41;;;;;;;;;;;;;;;;;;5070259;28;19911;-54
2023/03/18 16:39:07;;;;;;;;;;;;;;;;;;5070570;28;19970;-51